createdAt,value
2023-05-22T00:02:22.735Z,16.52
2023-05-22T00:04:58.795Z,14.93
2023-05-22T00:07:32.017Z,15.55
2023-05-22T00:10:06.155Z,15.70
2023-05-22T00:12:39.380Z,15.25
2023-05-22T00:15:13.585Z,16.02
2023-05-22T00:17:47.728Z,15.43
2023-05-22T00:20:23.432Z,15.65
2023-05-22T00:22:57.885Z,16.23
2023-05-22T00:25:31.214Z,15.80
2023-05-22T00:28:04.597Z,15.43
2023-05-22T00:30:38.688Z,15.85
2023-05-22T00:33:12.891Z,16.98
2023-05-22T00:35:47.422Z,17.25
2023-05-22T00:38:32.604Z,15.98
2023-05-22T00:41:07.211Z,15.75
2023-05-22T00:43:40.609Z,14.90
2023-05-22T00:46:14.523Z,16.25
2023-05-22T00:48:47.824Z,16.50
2023-05-22T00:51:23.380Z,16.38
2023-05-22T00:53:56.959Z,16.38
2023-05-22T00:56:30.096Z,15.88
2023-05-22T00:59:04.282Z,16.13
2023-05-22T01:01:42.068Z,16.50
2023-05-22T01:04:15.637Z,15.75
2023-05-22T01:06:50.325Z,15.88
2023-05-22T01:09:23.437Z,15.98
2023-05-22T01:12:02.900Z,15.57
2023-05-22T01:14:45.309Z,16.02
2023-05-22T01:17:25.146Z,16.20
2023-05-22T01:20:14.290Z,15.50
2023-05-22T01:23:22.363Z,15.60
2023-05-22T01:26:23.568Z,14.90
2023-05-22T01:29:35.946Z,15.93
2023-05-22T01:32:12.058Z,15.80
2023-05-22T01:34:46.789Z,16.20
2023-05-22T01:37:21.733Z,16.98
2023-05-22T01:39:55.931Z,15.80
2023-05-22T01:42:29.659Z,17.15
2023-05-22T01:45:02.928Z,16.98
2023-05-22T01:47:37.523Z,16.05
2023-05-22T01:50:12.038Z,16.55
2023-05-22T01:52:55.405Z,16.90
2023-05-22T01:55:36.179Z,16.35
2023-05-22T01:58:19.300Z,16.38
2023-05-22T02:00:55.010Z,17.08
2023-05-22T02:03:33.179Z,15.80
2023-05-22T02:06:09.680Z,16.35
2023-05-22T02:08:44.196Z,16.83
2023-05-22T02:11:18.497Z,16.90
2023-05-22T02:13:52.446Z,16.92
2023-05-22T02:16:25.920Z,16.58
2023-05-22T02:19:06.453Z,16.10
2023-05-22T02:21:39.901Z,16.80
2023-05-22T02:24:13.017Z,16.00
2023-05-22T02:26:47.744Z,16.60
2023-05-22T02:29:20.878Z,16.33
2023-05-22T02:31:55.554Z,17.17
2023-05-22T02:34:31.689Z,17.23
2023-05-22T02:37:04.975Z,16.77
2023-05-22T02:39:38.173Z,17.35
2023-05-22T02:42:11.619Z,17.13
2023-05-22T02:44:44.675Z,17.25
2023-05-22T02:47:18.116Z,16.90
2023-05-22T02:49:52.530Z,16.52
2023-05-22T02:52:26.088Z,18.85
2023-05-22T02:54:59.234Z,17.17
2023-05-22T02:57:32.519Z,17.70
2023-05-22T03:00:08.214Z,17.58
2023-05-22T03:02:41.535Z,18.13
2023-05-22T03:05:17.686Z,17.00
2023-05-22T03:07:51.135Z,16.40
2023-05-22T03:10:24.878Z,17.05
2023-05-22T03:12:58.293Z,21.13
2023-05-22T03:15:31.437Z,17.77
2023-05-22T03:18:04.750Z,16.73
2023-05-22T03:20:39.508Z,17.70
2023-05-22T03:23:13.486Z,18.00
2023-05-22T03:25:46.709Z,18.58
2023-05-22T03:28:19.869Z,18.67
2023-05-22T03:30:53.677Z,18.45
2023-05-22T03:33:26.818Z,17.40
2023-05-22T03:36:01.356Z,18.15
2023-05-22T03:38:34.457Z,17.75
2023-05-22T03:41:07.939Z,17.02
2023-05-22T03:43:42.718Z,16.98
2023-05-22T03:46:18.111Z,17.02
2023-05-22T03:48:51.348Z,16.63
2023-05-22T03:51:25.883Z,16.50
2023-05-22T03:53:58.990Z,17.88
2023-05-22T03:56:32.089Z,17.75
2023-05-22T03:59:05.216Z,18.45
2023-05-22T04:01:39.622Z,17.98
2023-05-22T04:04:12.890Z,18.40
2023-05-22T04:06:47.370Z,17.80
2023-05-22T04:09:21.083Z,17.35
2023-05-22T04:11:54.274Z,17.38
2023-05-22T04:14:27.366Z,16.83
2023-05-22T04:17:00.989Z,17.15
2023-05-22T04:19:34.301Z,17.63
2023-05-22T04:22:08.923Z,18.00
2023-05-22T04:24:42.480Z,16.58
2023-05-22T04:27:16.121Z,16.95
2023-05-22T04:29:50.487Z,16.17
2023-05-22T04:32:23.661Z,17.05
2023-05-22T04:34:58.327Z,15.65
2023-05-22T04:37:32.847Z,17.58
2023-05-22T04:40:08.569Z,17.48
2023-05-22T04:42:44.533Z,16.30
2023-05-22T04:45:19.420Z,17.63
2023-05-22T04:47:53.480Z,17.02
2023-05-22T04:50:26.644Z,17.63
2023-05-22T04:53:04.227Z,17.08
2023-05-22T04:55:37.588Z,18.02
2023-05-22T04:58:10.679Z,17.55
2023-05-22T05:00:44.457Z,17.95
2023-05-22T05:03:17.757Z,17.02
2023-05-22T05:06:20.799Z,17.10
2023-05-22T05:08:55.235Z,16.20
2023-05-22T05:11:28.368Z,17.63
2023-05-22T05:14:01.498Z,17.17
2023-05-22T05:16:34.575Z,16.48
2023-05-22T05:19:07.749Z,16.50
2023-05-22T05:21:40.962Z,15.85
2023-05-22T05:24:16.355Z,16.15
2023-05-22T05:26:49.605Z,16.45
2023-05-22T05:29:22.707Z,16.27
2023-05-22T05:31:55.948Z,15.32
2023-05-22T05:34:29.209Z,15.90
2023-05-22T05:37:03.303Z,14.82
2023-05-22T05:39:37.873Z,13.95
2023-05-22T05:42:10.928Z,15.75
2023-05-22T05:44:43.987Z,15.23
2023-05-22T05:47:17.668Z,14.65
2023-05-22T05:49:50.801Z,15.18
2023-05-22T05:52:26.405Z,15.25
2023-05-22T05:55:01.885Z,14.75
2023-05-22T05:57:34.949Z,14.70
2023-05-22T06:00:11.383Z,14.15
2023-05-22T06:02:47.036Z,13.95
2023-05-22T06:05:21.381Z,13.93
2023-05-22T06:07:54.542Z,13.57
2023-05-22T06:10:29.021Z,14.30
2023-05-22T06:13:02.083Z,13.35
2023-05-22T06:15:35.141Z,14.25
2023-05-22T06:18:08.360Z,14.25
2023-05-22T06:20:41.811Z,14.55
2023-05-22T06:23:15.156Z,14.82
2023-05-22T06:25:49.678Z,14.32
2023-05-22T06:28:22.734Z,14.82
2023-05-22T06:30:57.145Z,13.30
2023-05-22T06:33:30.229Z,14.07
2023-05-22T06:36:03.776Z,13.32
2023-05-22T06:38:37.928Z,13.88
2023-05-22T06:41:12.464Z,13.63
2023-05-22T06:43:45.626Z,12.27
2023-05-22T06:46:18.834Z,13.05
2023-05-22T06:48:51.940Z,12.35
2023-05-22T06:51:25.802Z,12.20
2023-05-22T06:53:58.886Z,12.35
2023-05-22T06:56:33.344Z,11.60
2023-05-22T06:59:06.563Z,12.30
2023-05-22T07:01:41.328Z,11.57
2023-05-22T07:04:15.242Z,11.10
2023-05-22T07:06:48.644Z,11.75
2023-05-22T07:09:21.862Z,11.85
2023-05-22T07:11:56.378Z,11.93
2023-05-22T07:14:29.466Z,11.40
2023-05-22T07:17:02.556Z,10.77
2023-05-22T07:19:36.530Z,11.02
2023-05-22T07:22:09.681Z,11.18
2023-05-22T07:24:42.770Z,11.77
2023-05-22T07:27:17.244Z,11.75
2023-05-22T07:29:50.488Z,10.35
2023-05-22T07:32:23.583Z,11.85
2023-05-22T07:34:56.636Z,11.40
2023-05-22T07:37:30.044Z,11.98
2023-05-22T07:40:03.526Z,11.45
2023-05-22T07:42:38.235Z,11.02
2023-05-22T07:45:12.456Z,11.57
2023-05-22T07:47:45.539Z,11.20
2023-05-22T07:50:18.617Z,11.35
2023-05-22T07:52:51.772Z,11.05
2023-05-22T07:55:24.836Z,10.68
2023-05-22T07:57:59.369Z,11.38
2023-05-22T08:00:32.436Z,10.75
2023-05-22T08:03:05.907Z,10.88
2023-05-22T08:05:39.101Z,10.93
2023-05-22T08:08:12.322Z,11.10
2023-05-22T08:10:58.224Z,11.63
2023-05-22T08:13:38.653Z,11.77
2023-05-22T08:16:11.720Z,11.45
2023-05-22T08:18:44.826Z,11.55
2023-05-22T08:21:18.118Z,11.00
2023-05-22T08:23:51.200Z,11.55
2023-05-22T08:26:24.424Z,11.80
2023-05-22T08:28:58.915Z,11.52
2023-05-22T08:31:34.387Z,11.50
2023-05-22T08:34:07.799Z,11.95
2023-05-22T08:36:40.903Z,12.40
2023-05-22T08:39:14.480Z,11.25
2023-05-22T08:41:47.831Z,12.02
2023-05-22T08:44:22.346Z,13.05
2023-05-22T08:46:56.564Z,12.40
2023-05-22T08:49:30.026Z,12.38
2023-05-22T08:52:10.836Z,13.00
2023-05-22T08:54:46.634Z,13.07
2023-05-22T08:57:21.210Z,13.25
2023-05-22T08:59:55.995Z,14.55
2023-05-22T09:02:29.703Z,12.80
2023-05-22T09:05:05.396Z,13.52
2023-05-22T09:07:40.770Z,13.40
2023-05-22T09:10:14.725Z,13.00
2023-05-22T09:13:07.910Z,13.90
2023-05-22T09:15:42.385Z,13.20
2023-05-22T09:18:15.480Z,13.07
2023-05-22T09:20:48.605Z,13.75
2023-05-22T09:23:22.394Z,14.05
2023-05-22T09:25:57.192Z,13.43
2023-05-22T09:28:35.363Z,13.07
2023-05-22T09:31:09.848Z,13.75
2023-05-22T09:33:45.360Z,13.25
2023-05-22T09:36:18.446Z,13.32
2023-05-22T09:38:55.144Z,13.13
2023-05-22T09:41:29.041Z,11.98
2023-05-22T09:44:02.476Z,13.50
2023-05-22T09:46:42.884Z,12.73
2023-05-22T09:49:17.051Z,12.50
2023-05-22T09:51:55.188Z,11.95
2023-05-22T09:54:29.053Z,12.45
2023-05-22T09:57:03.770Z,12.85
2023-05-22T09:59:40.232Z,12.95
2023-05-22T10:02:14.721Z,13.25
2023-05-22T10:04:50.928Z,12.40
2023-05-22T10:07:28.361Z,11.70
2023-05-22T10:10:09.825Z,12.93
2023-05-22T10:12:46.532Z,12.18
2023-05-22T10:15:19.997Z,12.70
2023-05-22T10:17:55.261Z,13.02
2023-05-22T10:20:30.154Z,12.57
2023-05-22T10:23:04.894Z,13.20
2023-05-22T10:25:39.524Z,12.05
2023-05-22T10:28:16.260Z,12.27
2023-05-22T10:30:56.481Z,12.52
2023-05-22T10:33:36.159Z,11.30
2023-05-22T10:36:13.310Z,12.70
2023-05-22T10:39:01.416Z,12.50
2023-05-22T10:41:34.760Z,12.25
2023-05-22T10:44:08.235Z,12.32
2023-05-22T10:46:41.289Z,12.40
2023-05-22T10:49:23.411Z,11.65
2023-05-22T10:51:59.808Z,13.00
2023-05-22T10:54:44.073Z,12.32
2023-05-22T10:57:18.824Z,12.18
2023-05-22T10:59:52.076Z,12.02
2023-05-22T11:02:29.766Z,11.77
2023-05-22T11:05:35.388Z,12.00
2023-05-22T11:08:36.620Z,11.93
2023-05-22T11:11:14.672Z,11.68
2023-05-22T11:13:53.079Z,12.52
2023-05-22T11:16:26.167Z,12.02
2023-05-22T11:19:22.137Z,11.77
2023-05-22T11:22:02.864Z,12.15
2023-05-22T11:24:36.230Z,11.75
2023-05-22T11:27:10.012Z,10.85
2023-05-22T11:29:44.624Z,11.57
2023-05-22T11:32:20.933Z,12.02
2023-05-22T11:34:54.886Z,11.68
2023-05-22T11:37:29.437Z,11.48
2023-05-22T11:40:06.490Z,11.70
2023-05-22T11:42:39.567Z,11.63
2023-05-22T11:45:13.131Z,10.65
2023-05-22T11:47:46.534Z,11.88
2023-05-22T11:50:33.266Z,11.90
2023-05-22T11:53:14.894Z,11.38
2023-05-22T11:55:50.160Z,11.43
2023-05-22T11:58:28.437Z,11.55
2023-05-22T12:01:03.359Z,11.45
2023-05-22T12:03:36.550Z,11.32
2023-05-22T12:06:10.633Z,10.82
2023-05-22T12:08:45.440Z,11.15
2023-05-22T12:11:18.702Z,11.07
2023-05-22T12:14:02.020Z,11.45
2023-05-22T12:16:37.177Z,10.95
2023-05-22T12:19:11.962Z,10.68
2023-05-22T12:21:46.307Z,10.70
2023-05-22T12:24:23.351Z,10.68
2023-05-22T12:26:57.470Z,11.07
2023-05-22T12:29:30.450Z,10.23
2023-05-22T12:32:04.779Z,11.25
2023-05-22T12:34:44.500Z,10.52
2023-05-22T12:37:21.789Z,10.77
2023-05-22T12:39:57.202Z,10.43
2023-05-22T12:42:30.242Z,10.55
2023-05-22T12:45:03.320Z,10.60
2023-05-22T12:47:36.458Z,10.68
2023-05-22T12:50:10.538Z,10.73
2023-05-22T12:52:43.590Z,10.43
2023-05-22T12:55:17.978Z,10.30
2023-05-22T12:57:50.996Z,10.55
2023-05-22T13:00:24.117Z,11.00
2023-05-22T13:02:57.240Z,10.27
2023-05-22T13:05:30.445Z,11.60
2023-05-22T13:08:03.612Z,10.30
2023-05-22T13:10:38.511Z,9.98
2023-05-22T13:13:11.535Z,10.13
2023-05-22T13:15:44.612Z,9.95
2023-05-22T13:18:17.700Z,10.77
2023-05-22T13:20:51.259Z,10.20
2023-05-22T13:23:24.484Z,10.52
2023-05-22T13:25:58.879Z,10.32
2023-05-22T13:28:31.996Z,10.30
2023-05-22T13:31:05.196Z,10.65
2023-05-22T13:33:38.371Z,10.32
2023-05-22T13:36:11.570Z,9.95
2023-05-22T13:38:44.628Z,11.05
2023-05-22T13:41:19.097Z,10.23
2023-05-22T13:43:52.135Z,10.80
2023-05-22T13:46:25.200Z,10.27
2023-05-22T13:48:58.271Z,10.88
2023-05-22T13:51:31.780Z,10.40
2023-05-22T13:54:05.796Z,10.10
2023-05-22T13:56:40.157Z,10.25
2023-05-22T13:59:13.178Z,11.43
2023-05-22T14:01:46.205Z,10.18
2023-05-22T14:04:19.201Z,9.93
2023-05-22T14:06:52.503Z,9.45
2023-05-22T14:09:25.547Z,9.95
2023-05-22T14:11:59.963Z,9.20
2023-05-22T14:14:33.015Z,9.38
2023-05-22T14:17:08.979Z,9.90
2023-05-22T14:19:42.176Z,9.07
2023-05-22T14:22:15.215Z,8.68
2023-05-22T14:24:48.235Z,9.07
2023-05-22T14:27:22.629Z,9.10
2023-05-22T14:29:55.618Z,8.30
2023-05-22T14:32:28.674Z,8.32
2023-05-22T14:35:01.743Z,7.78
2023-05-22T14:37:34.754Z,7.10
2023-05-22T14:40:10.680Z,7.43
2023-05-22T14:42:45.181Z,7.60
2023-05-22T14:45:18.246Z,7.30
2023-05-22T14:47:51.356Z,7.88
2023-05-22T14:50:24.465Z,8.18
2023-05-22T14:52:57.486Z,7.95
2023-05-22T14:55:31.527Z,7.75
2023-05-22T14:58:05.902Z,7.55
2023-05-22T15:00:38.946Z,7.35
2023-05-22T15:03:12.831Z,7.45
2023-05-22T15:05:46.133Z,8.07
2023-05-22T15:08:20.778Z,7.72
2023-05-22T15:10:53.865Z,8.25
2023-05-22T15:13:28.242Z,7.50
2023-05-22T15:16:01.359Z,7.57
2023-05-22T15:18:34.419Z,7.07
2023-05-22T15:21:07.660Z,7.03
2023-05-22T15:23:40.866Z,7.60
2023-05-22T15:26:13.955Z,6.75
2023-05-22T15:28:48.405Z,6.50
2023-05-22T15:31:21.486Z,6.13
2023-05-22T15:33:58.023Z,6.32
2023-05-22T15:36:31.358Z,6.55
2023-05-22T15:39:04.726Z,7.47
2023-05-22T15:41:37.763Z,7.20
2023-05-22T15:44:12.395Z,6.90
2023-05-22T15:46:45.398Z,7.55
2023-05-22T15:49:18.497Z,7.10
2023-05-22T15:51:51.574Z,8.18
2023-05-22T15:54:24.640Z,8.60
2023-05-22T15:56:57.648Z,8.77
2023-05-22T15:59:32.036Z,8.95
2023-05-22T16:02:05.861Z,8.55
2023-05-22T16:04:38.949Z,8.55
2023-05-22T16:07:12.176Z,7.60
2023-05-22T16:09:45.167Z,6.80
2023-05-22T16:12:18.220Z,6.20
2023-05-22T16:14:59.392Z,6.03
2023-05-22T16:17:33.533Z,5.40
2023-05-22T16:20:08.942Z,5.80
2023-05-22T16:25:20.079Z,5.55
2023-05-22T16:27:53.792Z,5.53
2023-05-22T16:30:28.142Z,5.95
2023-05-22T16:33:01.137Z,6.47
2023-05-22T16:35:34.393Z,7.13
2023-05-22T16:38:11.645Z,8.50
2023-05-22T16:40:44.628Z,9.35
2023-05-22T16:43:17.719Z,10.15
2023-05-22T16:45:52.271Z,10.52
2023-05-22T16:48:25.371Z,9.50
2023-05-22T16:50:58.430Z,10.00
2023-05-22T16:53:31.439Z,9.68
2023-05-22T16:56:05.908Z,9.07
2023-05-22T16:58:39.343Z,8.40
2023-05-22T17:01:14.568Z,8.18
2023-05-22T17:03:47.630Z,8.18
2023-05-22T17:06:21.148Z,8.32
2023-05-22T17:08:54.216Z,7.70
2023-05-22T17:11:27.558Z,7.82
2023-05-22T17:14:00.602Z,8.25
2023-05-22T17:16:34.996Z,8.48
2023-05-22T17:19:08.076Z,8.50
2023-05-22T17:21:41.203Z,8.40
2023-05-22T17:24:14.918Z,8.98
2023-05-22T17:26:48.972Z,7.80
2023-05-22T17:29:22.006Z,8.18
2023-05-22T17:31:56.469Z,8.07
2023-05-22T17:34:29.535Z,8.02
2023-05-22T17:37:02.603Z,8.77
2023-05-22T17:39:35.645Z,8.75
2023-05-22T17:42:08.911Z,9.32
2023-05-22T17:44:41.936Z,9.85
2023-05-22T17:47:16.443Z,8.93
2023-05-22T17:49:49.499Z,9.45
2023-05-22T17:52:22.605Z,9.35
2023-05-22T17:54:56.212Z,9.05
2023-05-22T17:57:29.600Z,9.57
2023-05-22T18:00:05.783Z,9.13
2023-05-22T18:02:40.603Z,9.45
2023-05-22T18:05:13.769Z,9.50
2023-05-22T18:07:46.842Z,9.55
2023-05-22T18:10:21.248Z,9.10
2023-05-22T18:12:54.335Z,9.80
2023-05-22T18:15:27.410Z,8.93
2023-05-22T18:18:02.007Z,9.68
2023-05-22T18:20:35.102Z,10.55
2023-05-22T18:23:08.156Z,9.90
2023-05-22T18:25:41.521Z,9.90
2023-05-22T18:28:14.588Z,9.60
2023-05-22T18:30:49.474Z,9.27
2023-05-22T18:33:25.254Z,9.80
2023-05-22T18:36:00.223Z,9.85
2023-05-22T18:38:33.333Z,9.98
2023-05-22T18:41:07.626Z,9.35
2023-05-22T18:43:40.728Z,9.80
2023-05-22T18:46:14.257Z,10.27
2023-05-22T18:48:49.839Z,9.85
2023-05-22T18:51:22.932Z,10.15
2023-05-22T18:53:55.948Z,9.80
2023-05-22T18:56:29.020Z,9.60
2023-05-22T18:59:02.045Z,9.85
2023-05-22T19:01:35.221Z,10.10
2023-05-22T19:04:09.997Z,9.98
2023-05-22T19:06:43.131Z,9.48
2023-05-22T19:09:16.586Z,10.05
2023-05-22T19:11:49.629Z,10.70
2023-05-22T19:14:22.678Z,10.65
2023-05-22T19:16:55.764Z,10.43
2023-05-22T19:19:30.306Z,10.75
2023-05-22T19:22:03.439Z,11.30
2023-05-22T19:24:37.309Z,11.20
2023-05-22T19:27:10.344Z,11.05
2023-05-22T19:29:43.359Z,10.45
2023-05-22T19:32:16.395Z,10.27
2023-05-22T19:34:50.782Z,10.85
2023-05-22T19:37:24.252Z,10.30
2023-05-22T19:39:57.255Z,10.82
2023-05-22T19:42:30.371Z,12.15
2023-05-22T19:45:04.515Z,11.07
2023-05-22T19:47:37.610Z,11.68
2023-05-22T19:50:12.868Z,10.88
2023-05-22T19:52:46.117Z,11.27
2023-05-22T19:55:19.251Z,11.18
2023-05-22T19:57:52.306Z,11.65
2023-05-22T20:00:28.358Z,11.18
2023-05-22T20:03:01.640Z,10.93
2023-05-22T20:05:36.186Z,10.68
2023-05-22T20:08:10.170Z,11.90
2023-05-22T20:10:43.190Z,11.60
2023-05-22T20:13:16.238Z,11.88
2023-05-22T20:15:51.268Z,11.30
2023-05-22T20:18:24.624Z,12.23
2023-05-22T20:20:59.261Z,11.95
2023-05-22T20:23:32.332Z,12.20
2023-05-22T20:26:06.232Z,13.00
2023-05-22T20:28:39.419Z,11.55
2023-05-22T20:31:12.508Z,12.65
2023-05-22T20:33:45.559Z,12.32
2023-05-22T20:36:20.070Z,11.85
2023-05-22T20:38:53.655Z,12.10
2023-05-22T20:41:26.690Z,12.55
2023-05-22T20:43:59.789Z,11.88
2023-05-22T20:46:33.763Z,11.77
2023-05-22T20:49:06.853Z,12.63
2023-05-22T20:51:41.268Z,12.57
2023-05-22T20:54:14.369Z,12.65
2023-05-22T20:56:47.489Z,13.20
2023-05-22T20:59:20.634Z,12.75
2023-05-22T21:01:53.694Z,12.73
2023-05-22T21:04:27.633Z,12.43
2023-05-22T21:07:02.061Z,12.52
2023-05-22T21:09:35.277Z,12.60
2023-05-22T21:12:09.184Z,12.82
2023-05-22T21:14:43.753Z,12.50
2023-05-22T21:17:17.000Z,12.80
2023-05-22T21:19:50.123Z,12.07
2023-05-22T21:22:24.541Z,12.75
2023-05-22T21:24:57.592Z,12.20
2023-05-22T21:27:30.680Z,11.93
2023-05-22T21:30:03.865Z,11.88
2023-05-22T21:32:36.976Z,12.00
2023-05-22T21:35:11.174Z,11.23
2023-05-22T21:37:45.631Z,12.65
2023-05-22T21:40:19.043Z,13.45
2023-05-22T21:42:52.102Z,12.20
2023-05-22T21:45:25.146Z,12.30
2023-05-22T21:47:58.239Z,13.02
2023-05-22T21:50:31.328Z,12.98
2023-05-22T21:53:05.723Z,12.68
2023-05-22T21:55:38.802Z,13.40
2023-05-22T21:58:12.452Z,13.35
2023-05-22T22:00:45.495Z,13.07
2023-05-22T22:03:19.341Z,13.23
2023-05-22T22:05:52.622Z,13.32
2023-05-22T22:08:28.318Z,12.63
2023-05-22T22:11:01.837Z,13.15
2023-05-22T22:13:35.005Z,13.43
2023-05-22T22:16:08.380Z,13.90
2023-05-22T22:18:41.576Z,13.65
2023-05-22T22:21:33.347Z,12.68
2023-05-22T22:24:08.019Z,14.55
2023-05-22T22:26:41.041Z,12.82
2023-05-22T22:29:14.076Z,12.27
2023-05-22T22:31:47.343Z,13.05
2023-05-22T22:34:20.857Z,12.60
2023-05-22T22:36:53.917Z,13.48
2023-05-22T22:39:28.285Z,13.57
2023-05-22T22:42:03.993Z,12.95
2023-05-22T22:44:37.052Z,12.75
2023-05-22T22:47:10.256Z,13.93
2023-05-22T22:49:43.372Z,13.00
2023-05-22T22:52:16.464Z,13.40
2023-05-22T22:54:50.949Z,13.27
2023-05-22T22:57:24.042Z,13.38
2023-05-22T22:59:57.101Z,12.60
2023-05-22T23:02:30.232Z,12.52
2023-05-22T23:05:03.372Z,13.55
2023-05-22T23:07:36.733Z,13.55
2023-05-22T23:10:11.859Z,13.77
2023-05-22T23:12:44.954Z,12.88
2023-05-22T23:15:18.046Z,12.68
2023-05-22T23:17:52.038Z,12.45
2023-05-22T23:20:25.218Z,13.20
2023-05-22T23:22:58.347Z,13.43
2023-05-22T23:25:32.733Z,14.10
2023-05-22T23:28:06.732Z,14.68
2023-05-22T23:30:39.839Z,15.07
2023-05-22T23:33:12.943Z,13.65
2023-05-22T23:35:46.373Z,13.77
2023-05-22T23:38:19.432Z,13.25
2023-05-22T23:40:53.829Z,13.20
2023-05-22T23:43:26.913Z,12.88
2023-05-22T23:45:59.972Z,13.18
2023-05-22T23:48:33.025Z,12.73
2023-05-22T23:51:08.839Z,13.05
2023-05-22T23:53:42.502Z,12.73
2023-05-22T23:56:17.089Z,13.18
2023-05-22T23:58:50.599Z,13.32
